Time;durP1;ratioP1;P1;durP2;ratioP2;P2;SDS_P1;SDS_P2;PMS_P1;PMS_P2;Temp;Humidity;BMP_temperature;BMP_pressure;BME280_temperature;BME280_humidity;BME280_pressure;Samples;Min_cycle;Max_cycle;Signal;HPM_P1;HPM_P2
2023/08/02 00:01:23;;;;;;;4.05;1.83;;;18.00;99.90;;;;;;4146013;28;20042;-75
2023/08/02 00:03:24;;;;;;;5.13;2.00;;;18.00;99.90;;;;;;4147523;28;20042;-75
2023/08/02 00:05:24;;;;;;;4.25;1.63;;;18.00;99.90;;;;;;4149828;28;20490;-75
2023/08/02 00:07:25;;;;;;;5.10;1.85;;;18.00;99.90;;;;;;4148092;28;20037;-74
2023/08/02 00:09:27;;;;;;;6.50;2.22;;;18.00;99.90;;;;;;4147894;28;20359;-75
2023/08/02 00:11:27;;;;;;;2.97;1.50;;;17.90;99.90;;;;;;4146893;28;20046;-75
2023/08/02 00:13:28;;;;;;;4.22;1.63;;;17.90;99.90;;;;;;4149108;28;20521;-75
2023/08/02 00:15:28;;;;;;;6.28;1.67;;;17.90;99.90;;;;;;4145566;28;20041;-75
2023/08/02 00:17:29;;;;;;;3.15;1.52;;;17.90;99.90;;;;;;4146825;28;20559;-75
2023/08/02 00:19:29;;;;;;;4.13;1.95;;;17.80;99.90;;;;;;4151506;28;20124;-75
2023/08/02 00:21:30;;;;;;;6.72;1.77;;;17.80;99.90;;;;;;4150730;28;20096;-75
2023/08/02 00:23:31;;;;;;;3.08;1.10;;;17.80;99.90;;;;;;4148790;28;20414;-75
2023/08/02 00:25:32;;;;;;;3.70;1.52;;;17.80;99.90;;;;;;4148979;28;20048;-75
2023/08/02 00:27:32;;;;;;;4.45;1.60;;;17.90;99.90;;;;;;4148490;28;20033;-75
2023/08/02 00:29:33;;;;;;;3.05;1.50;;;17.80;99.90;;;;;;4147010;28;20477;-76
2023/08/02 00:31:34;;;;;;;3.83;1.58;;;17.80;99.90;;;;;;4149201;28;20493;-75
2023/08/02 00:33:34;;;;;;;5.63;1.75;;;17.80;99.90;;;;;;4146606;28;20124;-75
2023/08/02 00:35:35;;;;;;;3.05;1.40;;;17.80;99.90;;;;;;4147440;28;20026;-75
2023/08/02 00:37:35;;;;;;;5.22;1.60;;;17.70;99.90;;;;;;4149139;28;20037;-76
2023/08/02 00:39:36;;;;;;;3.83;1.58;;;17.70;99.90;;;;;;4146431;28;20506;-75
2023/08/02 00:41:36;;;;;;;1.90;1.45;;;17.60;99.90;;;;;;4145942;28;20042;-74
2023/08/02 00:43:44;;;;;;;2.97;1.40;;;17.60;99.90;;;;;;4149523;28;20034;-74
2023/08/02 00:45:44;;;;;;;2.67;1.30;;;17.60;99.90;;;;;;4162860;28;20043;-75
2023/08/02 00:47:45;;;;;;;3.63;1.65;;;17.60;99.90;;;;;;4163634;28;20070;-75
2023/08/02 00:49:46;;;;;;;4.55;1.20;;;17.50;99.90;;;;;;4163422;28;20383;-75
2023/08/02 00:51:46;;;;;;;6.40;1.90;;;17.50;99.90;;;;;;4165884;28;20038;-75
2023/08/02 00:53:47;;;;;;;1.95;1.50;;;17.50;99.90;;;;;;4164678;28;20037;-75
2023/08/02 00:55:49;;;;;;;4.25;1.90;;;17.50;99.90;;;;;;4164364;28;20040;-75
2023/08/02 00:57:50;;;;;;;2.58;1.30;;;17.50;99.90;;;;;;4163878;28;20039;-75
2023/08/02 00:59:51;;;;;;;3.45;1.65;;;17.40;99.90;;;;;;4147653;28;20045;-72
2023/08/02 01:01:52;;;;;;;2.63;1.35;;;17.40;99.90;;;;;;4164875;28;20049;-74
2023/08/02 01:03:53;;;;;;;2.22;1.17;;;17.40;99.90;;;;;;4165796;28;20509;-74
2023/08/02 01:05:59;;;;;;;4.28;1.50;;;17.40;99.90;;;;;;4165734;28;20442;-64
2023/08/02 01:08:04;;;;;;;4.82;1.65;;;17.40;99.90;;;;;;4167876;28;20464;-64
2023/08/02 01:10:29;;;;;;;4.15;1.58;;;17.40;99.90;;;;;;4161594;28;20091;-66
2023/08/02 01:12:31;;;;;;;3.05;1.50;;;17.30;99.90;;;;;;4160063;28;20021;-66
2023/08/02 01:14:35;;;;;;;2.65;1.40;;;17.30;99.90;;;;;;4163299;28;20044;-66
2023/08/02 01:16:37;;;;;;;4.53;1.55;;;17.30;99.90;;;;;;4162598;28;20037;-66
2023/08/02 01:18:37;;;;;;;2.23;1.53;;;17.30;99.90;;;;;;4164146;28;20048;-66
2023/08/02 01:20:38;;;;;;;2.80;1.40;;;17.30;99.90;;;;;;4162462;28;20045;-66
2023/08/02 01:22:39;;;;;;;5.38;1.60;;;17.30;99.90;;;;;;4166730;28;20045;-66
2023/08/02 01:24:39;;;;;;;3.28;1.27;;;17.30;99.90;;;;;;4165840;28;20037;-65
2023/08/02 01:26:47;;;;;;;4.68;1.73;;;17.30;99.90;;;;;;4164388;28;20193;-66
2023/08/02 01:28:54;;;;;;;2.70;1.73;;;17.20;99.90;;;;;;4168919;28;20032;-65
2023/08/02 01:30:54;;;;;;;4.05;2.00;;;17.20;99.90;;;;;;4165101;28;20048;-66
2023/08/02 01:32:56;;;;;;;4.32;1.50;;;17.20;99.90;;;;;;4168710;28;20037;-66
2023/08/02 01:34:56;;;;;;;4.07;1.48;;;17.20;99.90;;;;;;4172279;28;20393;-66
2023/08/02 01:36:57;;;;;;;4.88;1.95;;;17.20;99.90;;;;;;4158364;28;20037;-66
2023/08/02 01:38:58;;;;;;;5.78;1.83;;;17.20;99.90;;;;;;4158544;28;20050;-66
2023/08/02 01:40:58;;;;;;;4.13;1.70;;;17.20;99.90;;;;;;4154169;28;20351;-65
2023/08/02 01:42:59;;;;;;;6.55;2.13;;;17.20;99.90;;;;;;4154964;28;20030;-66
2023/08/02 01:44:59;;;;;;;4.82;1.85;;;17.20;99.90;;;;;;4155090;28;20048;-65
2023/08/02 01:47:00;;;;;;;3.63;1.58;;;17.20;99.90;;;;;;4153012;28;20050;-66
2023/08/02 01:49:01;;;;;;;4.95;1.73;;;17.20;99.90;;;;;;4162785;28;20040;-65
2023/08/02 01:51:01;;;;;;;4.28;1.63;;;17.20;99.90;;;;;;4143502;28;20475;-65
2023/08/02 01:53:02;;;;;;;4.97;1.55;;;17.20;99.90;;;;;;4144390;28;20084;-65
2023/08/02 01:55:03;;;;;;;4.32;1.88;;;17.10;99.90;;;;;;4154206;28;20034;-66
2023/08/02 01:57:04;;;;;;;1.85;1.30;;;17.10;99.90;;;;;;4152318;28;20069;-66
2023/08/02 01:59:04;;;;;;;5.25;1.65;;;17.20;99.90;;;;;;4156876;28;20033;-65
2023/08/02 02:01:05;;;;;;;3.10;1.90;;;17.20;99.90;;;;;;4151460;28;20042;-65
2023/08/02 02:03:05;;;;;;;3.30;1.50;;;17.20;99.90;;;;;;4154612;28;20065;-66
2023/08/02 02:05:06;;;;;;;2.83;1.42;;;17.20;99.90;;;;;;4151319;28;20483;-66
2023/08/02 02:07:07;;;;;;;1.65;1.35;;;17.20;99.90;;;;;;4153107;28;20037;-66
2023/08/02 02:09:07;;;;;;;2.63;1.63;;;17.20;99.90;;;;;;4153909;28;20061;-66
2023/08/02 02:11:08;;;;;;;3.50;1.52;;;17.30;99.90;;;;;;4155365;28;20057;-66
2023/08/02 02:13:09;;;;;;;4.53;1.90;;;17.20;99.90;;;;;;4150202;28;20034;-66
2023/08/02 02:15:09;;;;;;;3.75;2.00;;;17.20;99.90;;;;;;4154700;28;20469;-67
2023/08/02 02:17:10;;;;;;;4.95;1.58;;;17.30;99.90;;;;;;4153790;28;20049;-66
2023/08/02 02:19:10;;;;;;;4.32;1.73;;;17.30;99.90;;;;;;4147730;28;20108;-66
2023/08/02 02:21:11;;;;;;;3.10;1.70;;;17.30;99.90;;;;;;4147096;28;20037;-62
2023/08/02 02:23:11;;;;;;;5.22;1.50;;;17.30;99.90;;;;;;4147151;28;20046;-62
2023/08/02 02:25:12;;;;;;;2.40;1.45;;;17.30;99.90;;;;;;4158348;28;20096;-63
2023/08/02 02:27:13;;;;;;;3.47;1.70;;;17.30;99.90;;;;;;4166939;28;20401;-62
2023/08/02 02:29:13;;;;;;;5.45;2.20;;;17.30;99.90;;;;;;4169319;28;20037;-62
2023/08/02 02:31:14;;;;;;;3.88;1.73;;;17.40;99.90;;;;;;4172638;28;20033;-62
2023/08/02 02:33:14;;;;;;;5.28;1.70;;;17.40;99.90;;;;;;4149577;28;20617;-62
2023/08/02 02:35:15;;;;;;;4.57;2.25;;;17.40;99.90;;;;;;4162127;28;20083;-62
2023/08/02 02:37:16;;;;;;;3.53;1.50;;;17.40;99.90;;;;;;4170045;28;20102;-62
2023/08/02 02:39:16;;;;;;;3.15;1.70;;;17.40;99.90;;;;;;4165293;28;20077;-62
2023/08/02 02:41:17;;;;;;;4.50;1.80;;;17.40;99.90;;;;;;4162497;28;20064;-62
2023/08/02 02:43:17;;;;;;;4.63;1.92;;;17.40;99.90;;;;;;4155150;28;20038;-62
2023/08/02 02:45:18;;;;;;;7.47;2.08;;;17.50;99.90;;;;;;4164343;28;20989;-62
2023/08/02 02:47:19;;;;;;;4.13;1.83;;;17.50;99.90;;;;;;4139701;28;20096;-62
2023/08/02 02:49:19;;;;;;;3.67;1.58;;;17.50;99.90;;;;;;4155242;28;20061;-62
2023/08/02 02:51:20;;;;;;;4.93;2.17;;;17.50;99.90;;;;;;4144920;28;20030;-62
2023/08/02 02:53:22;;;;;;;5.35;1.85;;;17.50;99.90;;;;;;4144966;28;20029;-62
2023/08/02 02:55:23;;;;;;;;;;;17.50;99.90;;;;;;4161616;28;20481;-62
2023/08/02 02:57:24;;;;;;;6.38;2.00;;;17.50;99.90;;;;;;4168031;28;19971;-62
2023/08/02 02:59:24;;;;;;;3.85;1.85;;;17.50;99.90;;;;;;4161564;28;20037;-63
2023/08/02 03:01:25;;;;;;;3.28;1.92;;;17.40;99.90;;;;;;4164286;28;20025;-62
2023/08/02 03:03:25;;;;;;;5.20;1.98;;;17.40;99.90;;;;;;4156510;28;20106;-62
2023/08/02 03:05:26;;;;;;;3.30;1.60;;;17.50;99.90;;;;;;4161630;28;20113;-62
2023/08/02 03:07:26;;;;;;;3.88;1.80;;;17.50;99.90;;;;;;4169276;28;20044;-63
2023/08/02 03:09:27;;;;;;;4.05;1.80;;;17.50;99.90;;;;;;4163343;28;20556;-62
2023/08/02 03:11:27;;;;;;;3.47;1.73;;;17.50;99.90;;;;;;4171635;28;22703;-62
2023/08/02 03:13:28;;;;;;;4.18;1.95;;;17.60;99.90;;;;;;4181758;28;20063;-62
2023/08/02 03:15:29;;;;;;;2.58;1.30;;;17.60;99.90;;;;;;4181141;28;20033;-62
2023/08/02 03:17:29;;;;;;;3.58;1.70;;;17.60;99.90;;;;;;4179543;28;20025;-62
2023/08/02 03:19:30;;;;;;;5.18;1.95;;;17.60;99.90;;;;;;4187655;28;20029;-62
2023/08/02 03:21:32;;;;;;;4.88;1.83;;;17.70;99.90;;;;;;4181191;28;20080;-62
2023/08/02 03:23:34;;;;;;;4.23;1.87;;;17.70;99.90;;;;;;4179494;28;20480;-62
2023/08/02 03:25:35;;;;;;;2.67;1.55;;;17.70;99.90;;;;;;4181514;28;20263;-62
2023/08/02 03:27:36;;;;;;;4.38;1.70;;;17.70;99.90;;;;;;4179447;28;20049;-62
2023/08/02 03:29:37;;;;;;;4.97;2.20;;;17.70;99.90;;;;;;4182797;28;20366;-62
2023/08/02 03:31:37;;;;;;;5.75;2.00;;;17.80;99.90;;;;;;4175098;28;20603;-68
2023/08/02 03:33:38;;;;;;;4.97;2.38;;;17.80;99.90;;;;;;4162586;28;20128;-69
2023/08/02 03:35:38;;;;;;;7.10;2.20;;;17.80;99.90;;;;;;4165619;28;20041;-70
2023/08/02 03:37:39;;;;;;;5.53;2.05;;;17.80;99.90;;;;;;4144785;28;20033;-68
2023/08/02 03:39:40;;;;;;;4.35;2.20;;;17.80;99.90;;;;;;4168199;28;20029;-69
2023/08/02 03:41:40;;;;;;;4.47;2.60;;;17.70;99.90;;;;;;4173436;28;20087;-64
2023/08/02 03:43:41;;;;;;;3.78;2.17;;;17.60;99.90;;;;;;4172231;28;20440;-65
2023/08/02 03:45:41;;;;;;;4.28;2.17;;;17.60;99.90;;;;;;4165607;28;22159;-64
2023/08/02 03:47:42;;;;;;;4.45;2.10;;;17.70;99.90;;;;;;4167260;28;20046;-64
2023/08/02 03:49:43;;;;;;;3.72;1.98;;;17.60;99.90;;;;;;4174979;28;20191;-64
2023/08/02 03:51:43;;;;;;;3.13;1.98;;;17.60;99.90;;;;;;4158977;28;20121;-69
2023/08/02 03:53:44;;;;;;;3.05;1.80;;;17.70;99.90;;;;;;4150768;28;20486;-69
2023/08/02 03:55:45;;;;;;;4.45;2.08;;;17.70;99.90;;;;;;4154323;28;20038;-69
2023/08/02 03:57:45;;;;;;;3.20;1.70;;;17.70;99.90;;;;;;4154288;28;20441;-69
2023/08/02 03:59:46;;;;;;;3.83;1.67;;;17.70;99.90;;;;;;4162477;28;20040;-69
2023/08/02 04:01:47;;;;;;;4.85;2.08;;;17.80;99.90;;;;;;4152946;28;20038;-69
2023/08/02 04:03:47;;;;;;;3.42;1.85;;;17.80;99.90;;;;;;4156924;28;20033;-69
2023/08/02 04:05:48;;;;;;;3.78;2.00;;;17.70;99.90;;;;;;4147594;28;20045;-69
2023/08/02 04:07:48;;;;;;;3.83;1.85;;;17.80;99.90;;;;;;4145847;28;20042;-69
2023/08/02 04:09:49;;;;;;;3.65;1.90;;;17.80;99.90;;;;;;4153785;28;20056;-69
2023/08/02 04:11:50;;;;;;;3.10;1.75;;;17.80;99.90;;;;;;4158251;28;20033;-69
2023/08/02 04:13:50;;;;;;;6.95;3.08;;;17.80;99.90;;;;;;4155225;28;20033;-69
2023/08/02 04:15:51;;;;;;;6.10;2.20;;;17.70;99.90;;;;;;4162060;28;20044;-69
2023/08/02 04:17:52;;;;;;;3.60;2.10;;;17.70;99.90;;;;;;4163136;28;20053;-70
2023/08/02 04:19:52;;;;;;;5.60;1.95;;;17.70;99.90;;;;;;4164180;28;20036;-69
2023/08/02 04:21:53;;;;;;;4.55;2.05;;;17.70;99.90;;;;;;4163277;28;20048;-70
2023/08/02 04:23:53;;;;;;;6.50;2.28;;;17.70;99.90;;;;;;4152593;28;20033;-70
2023/08/02 04:25:54;;;;;;;4.97;2.58;;;17.70;99.90;;;;;;4161018;28;20099;-70
2023/08/02 04:27:55;;;;;;;4.15;2.40;;;17.60;99.90;;;;;;4162503;28;20568;-70
2023/08/02 04:29:55;;;;;;;3.10;1.90;;;17.60;99.90;;;;;;4164459;28;20120;-69
2023/08/02 04:31:56;;;;;;;3.97;1.95;;;17.60;99.90;;;;;;4162172;28;20050;-70
2023/08/02 04:33:57;;;;;;;2.30;1.73;;;17.60;99.90;;;;;;4163968;28;20127;-70
2023/08/02 04:35:59;;;;;;;4.70;2.30;;;17.60;99.90;;;;;;4165088;28;20036;-70
2023/08/02 04:37:59;;;;;;;2.92;1.77;;;17.70;99.90;;;;;;4168396;28;20056;-69
2023/08/02 04:40:00;;;;;;;5.55;2.30;;;17.60;99.90;;;;;;4166267;28;20033;-70
2023/08/02 04:42:02;;;;;;;3.85;2.05;;;17.60;99.90;;;;;;4166067;28;20061;-69
2023/08/02 04:44:02;;;;;;;7.72;2.40;;;17.60;99.90;;;;;;4162685;28;20030;-70
2023/08/02 04:46:03;;;;;;;7.63;2.50;;;17.60;99.90;;;;;;4153446;28;20045;-69
2023/08/02 04:48:04;;;;;;;4.90;2.05;;;17.50;99.90;;;;;;4147146;28;20034;-69
2023/08/02 04:50:05;;;;;;;4.20;2.17;;;17.60;99.90;;;;;;4146685;28;20037;-70
2023/08/02 04:52:06;;;;;;;4.80;2.55;;;17.50;99.90;;;;;;4146579;28;20057;-69
2023/08/02 04:54:06;;;;;;;3.95;2.20;;;17.50;99.90;;;;;;4147506;28;20033;-70
2023/08/02 04:56:10;;;;;;;5.93;2.30;;;17.50;99.90;;;;;;4144823;28;20069;-69
2023/08/02 04:58:11;;;;;;;3.45;1.90;;;17.50;99.90;;;;;;4152905;28;20553;-69
2023/08/02 05:00:13;;;;;;;4.22;2.10;;;17.40;99.90;;;;;;4147994;28;20046;-71
2023/08/02 05:02:14;;;;;;;3.88;2.42;;;17.40;99.90;;;;;;4150176;28;20542;-64
2023/08/02 05:04:14;;;;;;;3.50;1.73;;;17.40;99.90;;;;;;4153278;28;20044;-64
2023/08/02 05:06:15;;;;;;;7.32;2.63;;;17.40;99.90;;;;;;4149941;28;20041;-64
2023/08/02 05:08:15;;;;;;;5.45;1.90;;;17.40;99.90;;;;;;4149435;28;20034;-64
2023/08/02 05:10:16;;;;;;;3.55;1.88;;;17.30;99.90;;;;;;4148303;28;20033;-64
2023/08/02 05:12:17;;;;;;;2.80;1.80;;;17.30;99.90;;;;;;4152279;28;20457;-65
2023/08/02 05:14:18;;;;;;;3.65;1.60;;;17.30;99.90;;;;;;4150994;28;20033;-64
2023/08/02 05:16:18;;;;;;;2.70;1.67;;;17.30;99.90;;;;;;4148992;28;20029;-64
2023/08/02 05:18:19;;;;;;;4.20;1.60;;;17.30;99.90;;;;;;4150220;28;20484;-64
2023/08/02 05:20:20;;;;;;;3.63;1.60;;;17.30;99.90;;;;;;4150569;28;20564;-64
2023/08/02 05:22:20;;;;;;;2.67;1.40;;;17.30;99.90;;;;;;4164929;28;20486;-64
2023/08/02 05:24:21;;;;;;;2.13;1.45;;;17.20;99.90;;;;;;4166297;28;20040;-64
2023/08/02 05:26:23;;;;;;;2.97;1.63;;;17.20;99.90;;;;;;4156984;28;20051;-64
2023/08/02 05:28:23;;;;;;;2.85;1.60;;;17.30;99.90;;;;;;4161440;28;20033;-64
2023/08/02 05:30:24;;;;;;;2.60;1.40;;;17.30;99.90;;;;;;4159269;28;20083;-64
2023/08/02 05:32:24;;;;;;;4.15;2.08;;;17.20;99.90;;;;;;4130940;28;20030;-64
2023/08/02 05:34:25;;;;;;;3.38;1.92;;;17.20;99.90;;;;;;4163841;28;20036;-64
2023/08/02 05:36:26;;;;;;;3.42;2.00;;;17.20;99.90;;;;;;4165390;28;20032;-65
2023/08/02 05:38:26;;;;;;;3.30;2.00;;;17.20;99.90;;;;;;4160393;28;20030;-64
2023/08/02 05:40:27;;;;;;;7.05;1.92;;;17.20;99.90;;;;;;4144415;28;20026;-64
2023/08/02 05:42:27;;;;;;;4.03;2.30;;;17.10;99.90;;;;;;4162194;28;20021;-64
2023/08/02 05:44:28;;;;;;;3.50;1.92;;;17.10;99.90;;;;;;4150916;28;20049;-66
2023/08/02 05:46:30;;;;;;;4.70;2.10;;;17.10;99.90;;;;;;4164482;28;20124;-65
2023/08/02 05:48:30;;;;;;;5.57;2.33;;;17.10;99.90;;;;;;4168423;28;20029;-64
2023/08/02 05:50:31;;;;;;;5.57;2.10;;;17.20;99.90;;;;;;4167442;28;20036;-64
2023/08/02 05:52:32;;;;;;;2.80;1.83;;;17.10;99.90;;;;;;4157606;28;20041;-64
2023/08/02 05:54:32;;;;;;;3.65;2.20;;;17.20;99.90;;;;;;4163612;28;20037;-64
2023/08/02 05:56:33;;;;;;;4.18;2.05;;;17.20;99.90;;;;;;4165474;28;20029;-64
2023/08/02 05:58:34;;;;;;;5.72;1.90;;;17.20;99.90;;;;;;4162961;28;20045;-64
2023/08/02 06:00:34;;;;;;;3.10;2.00;;;17.10;99.90;;;;;;4163451;28;20056;-64
2023/08/02 06:02:36;;;;;;;3.67;2.28;;;17.20;99.90;;;;;;4163559;28;20056;-64
2023/08/02 06:04:39;;;;;;;3.15;2.20;;;17.10;99.90;;;;;;4168400;28;20383;-64
2023/08/02 06:06:39;;;;;;;4.63;2.25;;;17.20;99.90;;;;;;4165649;28;20393;-64
2023/08/02 06:08:41;;;;;;;5.85;2.28;;;17.20;99.90;;;;;;4159690;28;20053;-64
2023/08/02 06:10:42;;;;;;;3.63;2.33;;;17.10;99.90;;;;;;4155169;28;20022;-63
2023/08/02 06:12:43;;;;;;;5.88;2.70;;;17.10;99.90;;;;;;4157757;28;20669;-63
2023/08/02 06:14:44;;;;;;;6.95;3.05;;;17.10;99.90;;;;;;4151833;28;20091;-63
2023/08/02 06:16:45;;;;;;;6.20;2.58;;;17.20;99.90;;;;;;4155760;28;20120;-62
2023/08/02 06:18:45;;;;;;;4.60;2.35;;;17.10;99.90;;;;;;4154705;28;20038;-62
2023/08/02 06:20:46;;;;;;;4.90;2.60;;;17.10;99.90;;;;;;4152072;28;20040;-63
2023/08/02 06:22:46;;;;;;;3.40;2.20;;;17.10;99.90;;;;;;4153151;28;20041;-62
2023/08/02 06:24:47;;;;;;;5.35;2.00;;;17.10;99.90;;;;;;4168061;28;20090;-63
2023/08/02 06:26:48;;;;;;;5.07;2.92;;;17.10;99.90;;;;;;4163997;28;20099;-63
2023/08/02 06:28:48;;;;;;;5.22;2.88;;;17.20;99.90;;;;;;4165044;28;20124;-63
2023/08/02 06:30:49;;;;;;;5.72;3.10;;;17.20;99.90;;;;;;4169067;28;20104;-63
2023/08/02 06:32:50;;;;;;;5.25;2.65;;;17.10;99.90;;;;;;4165269;28;20033;-63
2023/08/02 06:34:50;;;;;;;6.00;2.65;;;17.10;99.90;;;;;;4165367;28;20432;-63
2023/08/02 06:36:51;;;;;;;5.70;2.55;;;17.10;99.90;;;;;;4166105;28;20030;-63
2023/08/02 06:38:52;;;;;;;4.70;2.78;;;17.10;99.90;;;;;;4166140;28;20389;-63
2023/08/02 06:40:52;;;;;;;6.97;3.42;;;17.10;99.90;;;;;;4161958;28;20512;-63
2023/08/02 06:42:53;;;;;;;4.00;2.50;;;17.00;99.90;;;;;;4167608;28;20046;-63
2023/08/02 06:44:54;;;;;;;5.57;2.55;;;17.10;99.90;;;;;;4163394;28;20188;-63
2023/08/02 06:46:54;;;;;;;3.65;2.63;;;17.10;99.90;;;;;;4163953;28;20140;-62
2023/08/02 06:48:55;;;;;;;7.18;2.92;;;17.10;99.90;;;;;;4164095;28;20049;-62
2023/08/02 06:50:55;;;;;;;5.93;2.75;;;17.10;99.90;;;;;;4166579;28;20490;-63
2023/08/02 06:52:56;;;;;;;5.43;2.90;;;17.10;99.90;;;;;;4169093;28;20049;-62
2023/08/02 06:54:57;;;;;;;4.45;2.42;;;17.10;99.90;;;;;;4168391;28;20029;-62
2023/08/02 06:56:57;;;;;;;6.65;2.53;;;17.00;99.90;;;;;;4162538;28;20036;-62
2023/08/02 06:58:58;;;;;;;5.10;2.90;;;17.00;99.90;;;;;;4166021;28;20037;-62
2023/08/02 07:00:59;;;;;;;3.55;2.42;;;17.10;99.90;;;;;;4168333;28;20091;-62
2023/08/02 07:03:00;;;;;;;4.63;2.63;;;17.10;99.90;;;;;;4174726;28;20025;-62
2023/08/02 07:05:01;;;;;;;4.17;2.40;;;17.10;99.90;;;;;;4168438;28;20037;-63
2023/08/02 07:07:04;;;;;;;6.53;3.05;;;17.10;99.90;;;;;;4164626;28;20091;-63
2023/08/02 07:09:05;;;;;;;5.40;2.67;;;17.10;99.90;;;;;;4163097;28;20037;-63
2023/08/02 07:11:06;;;;;;;4.75;2.38;;;17.00;99.90;;;;;;4166670;28;20061;-62
2023/08/02 07:13:06;;;;;;;6.95;3.15;;;17.00;99.90;;;;;;4163868;28;20555;-63
2023/08/02 07:15:07;;;;;;;4.47;2.55;;;17.00;99.90;;;;;;4147420;28;20050;-63
2023/08/02 07:17:08;;;;;;;6.93;2.97;;;17.00;99.90;;;;;;4164544;28;20044;-62
2023/08/02 07:19:08;;;;;;;4.43;2.42;;;17.00;99.90;;;;;;4169563;28;20428;-63
2023/08/02 07:21:10;;;;;;;4.63;2.70;;;17.00;99.90;;;;;;4163081;28;20091;-68
2023/08/02 07:23:10;;;;;;;4.25;2.83;;;17.00;99.90;;;;;;4170375;28;20371;-67
2023/08/02 07:25:11;;;;;;;4.00;2.50;;;17.00;99.90;;;;;;4164506;28;20039;-68
2023/08/02 07:27:12;;;;;;;5.18;2.67;;;17.00;99.90;;;;;;4169535;28;20064;-67
2023/08/02 07:29:12;;;;;;;3.78;2.47;;;17.00;99.90;;;;;;4165848;28;20112;-68
2023/08/02 07:31:13;;;;;;;4.60;2.38;;;17.00;99.90;;;;;;4165478;28;20039;-67
2023/08/02 07:33:14;;;;;;;3.45;2.40;;;17.00;99.90;;;;;;4164109;28;20449;-68
2023/08/02 07:35:15;;;;;;;4.95;2.47;;;17.00;99.90;;;;;;4160519;28;20026;-67
2023/08/02 07:37:15;;;;;;;3.50;2.53;;;17.10;99.90;;;;;;4166356;28;20499;-68
2023/08/02 07:39:16;;;;;;;3.38;2.13;;;17.10;99.90;;;;;;4168529;28;20034;-68
2023/08/02 07:41:16;;;;;;;3.28;2.20;;;17.10;99.90;;;;;;4165683;28;20466;-69
2023/08/02 07:43:17;;;;;;;3.78;1.92;;;17.10;99.90;;;;;;4170537;28;20112;-69
2023/08/02 07:45:17;;;;;;;7.65;2.45;;;17.10;99.90;;;;;;4167448;28;20048;-69
2023/08/02 07:47:19;;;;;;;2.65;1.98;;;17.10;99.90;;;;;;4166221;28;20053;-70
2023/08/02 07:49:20;;;;;;;3.58;2.28;;;17.10;99.90;;;;;;4163195;28;20071;-70
2023/08/02 07:51:20;;;;;;;3.83;2.10;;;17.10;99.90;;;;;;4166324;28;20029;-70
2023/08/02 07:53:21;;;;;;;4.00;2.33;;;17.10;99.90;;;;;;4168129;28;20042;-70
2023/08/02 07:55:22;;;;;;;2.95;2.03;;;17.10;99.90;;;;;;4163529;28;20069;-70
2023/08/02 07:57:25;;;;;;;2.67;1.95;;;17.20;99.90;;;;;;4167568;28;20040;-69
2023/08/02 07:59:25;;;;;;;2.97;1.70;;;17.20;99.90;;;;;;4167803;28;20030;-69
2023/08/02 08:01:26;;;;;;;3.60;2.60;;;17.30;99.90;;;;;;4166078;28;20041;-70
2023/08/02 08:03:26;;;;;;;3.17;1.70;;;17.20;99.90;;;;;;4148722;28;20038;-69
2023/08/02 08:05:29;;;;;;;2.92;2.00;;;17.20;99.90;;;;;;4164575;28;20034;-69
2023/08/02 08:07:30;;;;;;;5.78;2.55;;;17.30;99.90;;;;;;4166574;28;20037;-70
2023/08/02 08:09:31;;;;;;;3.45;2.03;;;17.40;99.90;;;;;;4165866;28;20035;-70
2023/08/02 08:11:31;;;;;;;3.17;2.05;;;17.30;99.90;;;;;;4165328;28;20450;-70
2023/08/02 08:13:32;;;;;;;3.78;1.98;;;17.30;99.90;;;;;;4167793;28;20059;-70
2023/08/02 08:15:33;;;;;;;4.03;1.90;;;17.40;99.90;;;;;;4145649;28;20112;-70
2023/08/02 08:17:34;;;;;;;2.63;2.05;;;17.40;99.90;;;;;;4166246;28;20486;-70
2023/08/02 08:19:34;;;;;;;3.47;2.10;;;17.40;99.90;;;;;;4149207;28;20034;-70
2023/08/02 08:21:35;;;;;;;2.58;1.88;;;17.50;99.90;;;;;;4166402;28;20033;-69
2023/08/02 08:23:36;;;;;;;4.65;2.03;;;17.50;99.90;;;;;;4160866;28;20401;-70
2023/08/02 08:25:36;;;;;;;4.57;2.00;;;17.50;99.90;;;;;;4167551;28;20029;-70
2023/08/02 08:27:37;;;;;;;3.53;2.13;;;17.50;99.90;;;;;;4167068;28;20033;-70
2023/08/02 08:29:37;;;;;;;3.28;2.00;;;17.50;99.90;;;;;;4144192;28;20038;-69
2023/08/02 08:31:38;;;;;;;3.90;2.25;;;17.50;99.90;;;;;;4169080;28;20061;-66
2023/08/02 08:33:39;;;;;;;3.33;2.30;;;17.60;99.90;;;;;;4174104;28;20584;-67
2023/08/02 08:35:40;;;;;;;2.72;1.98;;;17.60;99.90;;;;;;4168443;28;20453;-66
2023/08/02 08:37:41;;;;;;;3.67;2.30;;;17.60;99.90;;;;;;4166880;28;20084;-66
2023/08/02 08:39:41;;;;;;;4.28;2.00;;;17.60;99.90;;;;;;4166405;28;20107;-66
2023/08/02 08:41:42;;;;;;;5.55;2.22;;;17.70;99.90;;;;;;4164067;28;20057;-66
2023/08/02 08:43:42;;;;;;;2.80;1.90;;;17.70;99.90;;;;;;4169710;28;20056;-66
2023/08/02 08:45:44;;;;;;;3.63;2.33;;;17.70;99.90;;;;;;4166785;28;20132;-66
2023/08/02 08:47:46;;;;;;;5.97;1.95;;;17.70;99.90;;;;;;4136526;28;20047;-66
2023/08/02 08:49:47;;;;;;;4.37;1.50;;;17.80;99.90;;;;;;4172910;28;20489;-66
2023/08/02 08:51:52;;;;;;;2.92;1.80;;;17.80;99.90;;;;;;4165505;28;20037;-67
2023/08/02 08:53:54;;;;;;;2.63;1.63;;;17.90;99.90;;;;;;4171528;28;20073;-67
2023/08/02 08:55:56;;;;;;;4.05;2.15;;;17.80;99.90;;;;;;4165662;28;20061;-66
2023/08/02 08:57:56;;;;;;;3.42;2.03;;;17.90;99.90;;;;;;4153454;28;20041;-67
2023/08/02 08:59:57;;;;;;;7.22;1.92;;;17.90;99.90;;;;;;4171242;28;20056;-68
2023/08/02 09:01:59;;;;;;;3.70;1.92;;;18.00;99.90;;;;;;4168707;28;20038;-67
2023/08/02 09:04:00;;;;;;;3.72;1.70;;;18.00;99.90;;;;;;4152300;28;20029;-67
2023/08/02 09:06:02;;;;;;;2.75;1.63;;;18.00;99.90;;;;;;4145604;28;20107;-67
2023/08/02 09:08:02;;;;;;;2.17;1.60;;;18.10;99.90;;;;;;4152366;28;20048;-67
2023/08/02 09:10:03;;;;;;;3.78;1.77;;;18.10;99.90;;;;;;4151134;28;20050;-68
2023/08/02 09:12:04;;;;;;;2.35;1.52;;;18.20;99.90;;;;;;4147857;28;20040;-67
2023/08/02 09:14:15;;;;;;;3.67;1.80;;;18.20;99.90;;;;;;4146811;28;20375;-68
2023/08/02 09:16:17;;;;;;;3.78;1.95;;;18.20;99.90;;;;;;4150281;28;20044;-67
2023/08/02 09:18:17;;;;;;;3.08;1.83;;;18.20;99.90;;;;;;4154534;28;20029;-67
2023/08/02 09:20:23;;;;;;;2.33;1.73;;;18.30;99.90;;;;;;4147751;28;20405;-66
2023/08/02 09:22:27;;;;;;;4.13;1.80;;;18.30;99.90;;;;;;4152177;28;20030;-67
2023/08/02 09:24:36;;;;;;;2.45;1.65;;;18.30;99.90;;;;;;4152391;28;20478;-67
2023/08/02 09:26:37;;;;;;;2.92;1.65;;;18.30;99.90;;;;;;4152563;28;20029;-68
2023/08/02 09:28:38;;;;;;;2.00;1.48;;;18.30;99.90;;;;;;4160445;28;20500;-68
2023/08/02 09:30:40;;;;;;;1.98;1.60;;;18.30;99.90;;;;;;4153509;28;20026;-67
2023/08/02 09:33:04;;;;;;;2.45;1.80;;;18.40;99.90;;;;;;4152960;28;20038;-68
2023/08/02 09:35:05;;;;;;;1.98;1.50;;;18.40;99.90;;;;;;4148352;28;20120;-68
2023/08/02 09:37:07;;;;;;;3.58;1.55;;;18.40;99.90;;;;;;4146973;28;20127;-69
2023/08/02 09:39:14;;;;;;;2.10;1.50;;;18.40;99.90;;;;;;4149935;28;20033;-68
2023/08/02 09:41:22;;;;;;;3.53;1.40;;;18.40;99.90;;;;;;4148083;28;20038;-64
2023/08/02 09:43:23;;;;;;;1.35;1.02;;;18.40;99.90;;;;;;4152406;28;20456;-64
2023/08/02 09:45:32;;;;;;;1.10;1.00;;;18.40;99.90;;;;;;4159484;28;20056;-64
2023/08/02 09:47:32;;;;;;;1.92;1.30;;;18.40;99.90;;;;;;4162475;28;20409;-64
2023/08/02 09:49:33;;;;;;;5.00;1.67;;;18.40;99.90;;;;;;4150840;28;20112;-64
2023/08/02 09:51:38;;;;;;;1.20;1.10;;;18.40;99.90;;;;;;4162250;28;20057;-64
2023/08/02 09:53:40;;;;;;;1.45;0.90;;;18.50;99.90;;;;;;4165296;28;20043;-64
2023/08/02 09:55:44;;;;;;;0.93;0.82;;;18.50;99.90;;;;;;4145472;28;20081;-64
2023/08/02 09:57:47;;;;;;;1.70;1.25;;;18.50;99.90;;;;;;4147673;28;20502;-64
2023/08/02 09:59:47;;;;;;;1.08;0.90;;;18.50;99.90;;;;;;4171101;28;20025;-64
2023/08/02 10:01:48;;;;;;;1.75;0.90;;;18.60;99.90;;;;;;4161278;28;20040;-64
2023/08/02 10:03:55;;;;;;;0.60;0.60;;;18.60;99.90;;;;;;4167646;28;20037;-63
2023/08/02 10:05:58;;;;;;;1.25;0.80;;;18.60;99.90;;;;;;4166505;28;20068;-64
2023/08/02 10:07:58;;;;;;;1.15;0.98;;;18.60;99.90;;;;;;4167575;28;20091;-64
2023/08/02 10:10:05;;;;;;;1.50;0.80;;;18.60;99.90;;;;;;4169071;28;20083;-64
2023/08/02 10:12:13;;;;;;;1.35;0.80;;;18.70;99.90;;;;;;4164384;28;20030;-64
2023/08/02 10:14:14;;;;;;;0.65;0.63;;;18.80;99.90;;;;;;4154308;28;20034;-64
2023/08/02 10:16:18;;;;;;;1.05;0.43;;;18.80;99.90;;;;;;4163932;28;20061;-63
2023/08/02 10:18:21;;;;;;;0.73;0.60;;;18.90;99.90;;;;;;4162339;28;20540;-63
2023/08/02 10:20:22;;;;;;;;;;;19.00;99.90;;;;;;4165056;28;20033;-64
2023/08/02 10:22:24;;;;;;;0.98;0.75;;;19.00;99.90;;;;;;4168699;28;20396;-64
2023/08/02 10:24:28;;;;;;;0.60;0.60;;;19.10;99.90;;;;;;4167065;28;20045;-64
2023/08/02 10:26:30;;;;;;;0.40;0.40;;;19.20;99.90;;;;;;4168611;28;20057;-63
2023/08/02 10:28:32;;;;;;;0.73;0.70;;;19.20;99.90;;;;;;4162916;28;20555;-64
2023/08/02 10:30:33;;;;;;;1.77;0.73;;;19.20;99.90;;;;;;4163165;28;20041;-64
2023/08/02 10:32:34;;;;;;;0.70;0.40;;;19.30;99.90;;;;;;4149301;28;20038;-64